createdAt,value
2023-04-14T00:04:06.333Z,22.6
2023-04-14T00:09:58.841Z,22.4
2023-04-14T00:15:51.462Z,22.1
2023-04-14T00:21:44.299Z,21.8
2023-04-14T00:27:35.370Z,21.9
2023-04-14T00:33:12.206Z,24.2
2023-04-14T00:39:03.850Z,23.2
2023-04-14T00:44:55.729Z,22.8
2023-04-14T00:50:47.295Z,22.8
2023-04-14T00:56:23.997Z,22.5
2023-04-14T01:02:01.343Z,22.3
2023-04-14T01:07:54.397Z,22
2023-04-14T01:13:45.814Z,21.7
2023-04-14T01:19:37.966Z,22.2
2023-04-14T01:25:13.589Z,24.4
2023-04-14T01:31:05.571Z,23
2023-04-14T01:36:58.059Z,22.8
2023-04-14T01:42:49.440Z,22.8
2023-04-14T01:48:26.644Z,22.5
2023-04-14T01:54:19.054Z,22.3
2023-04-14T02:00:10.604Z,22
2023-04-14T02:06:03.791Z,21.7
2023-04-14T02:11:55.112Z,22.4
2023-04-14T02:17:46.121Z,24.9
2023-04-14T02:23:37.908Z,22.9
2023-04-14T02:29:29.187Z,22.8
2023-04-14T02:35:20.106Z,22.7
2023-04-14T02:41:11.202Z,22.5
2023-04-14T02:47:02.668Z,22.2
2023-04-14T02:52:54.114Z,21.9
2023-04-14T02:58:45.780Z,21.6
2023-04-14T03:04:39.084Z,22.9
2023-04-14T03:10:29.674Z,25.4
2023-04-14T03:16:05.817Z,22.9
2023-04-14T03:21:41.531Z,22.8
2023-04-14T03:27:34.122Z,22.7
2023-04-14T03:33:25.778Z,22.4
2023-04-14T03:39:17.620Z,22.2
2023-04-14T03:45:09.776Z,21.9
2023-04-14T03:51:05.809Z,21.6
2023-04-14T03:56:59.676Z,23.4
2023-04-14T04:02:52.166Z,24.8
2023-04-14T04:08:45.875Z,22.9
2023-04-14T04:14:39.105Z,22.8
2023-04-14T04:20:31.062Z,22.6
2023-04-14T04:26:22.299Z,22.4
2023-04-14T04:32:29.367Z,22.1
2023-04-14T04:38:21.266Z,21.8
2023-04-14T04:43:57.662Z,21.7
2023-04-14T04:49:34.134Z,23.9
2023-04-14T04:55:09.363Z,23.5
2023-04-14T05:00:32.092Z,22.9
2023-04-14T05:06:09.212Z,22.8
2023-04-14T05:11:47.677Z,22.6
2023-04-14T05:17:24.586Z,22.4
2023-04-14T05:23:00.436Z,22.1
2023-04-14T05:29:15.152Z,21.8
2023-04-14T05:34:39.054Z,21.6
2023-04-14T05:40:15.721Z,23.8
2023-04-14T05:46:07.744Z,23.6
2023-04-14T05:51:43.988Z,22.8
2023-04-14T05:57:21.431Z,22.8
2023-04-14T06:03:17.047Z,22.6
2023-04-14T06:08:56.139Z,22.3
2023-04-14T06:14:47.811Z,22
2023-04-14T06:20:08.551Z,21.8
2023-04-14T06:26:00.023Z,21.6
2023-04-14T06:31:36.515Z,24.1
2023-04-14T06:37:41.638Z,23.1
2023-04-14T06:43:32.903Z,22.7
2023-04-14T06:49:26.423Z,22.6
2023-04-14T06:55:18.199Z,22.4
2023-04-14T07:01:10.356Z,22.2
2023-04-14T07:07:04.831Z,21.9
2023-04-14T07:12:56.488Z,21.6
2023-04-14T07:18:34.920Z,23.9
2023-04-14T07:24:26.214Z,23.4
2023-04-14T07:30:31.196Z,22.7
2023-04-14T07:36:35.107Z,22.7
2023-04-14T07:42:11.278Z,22.5
2023-04-14T07:48:03.433Z,22.3
2023-04-14T07:53:55.885Z,21.9
2023-04-14T07:59:39.817Z,23.3
2023-04-14T08:05:33.235Z,24.6
2023-04-14T08:11:25.025Z,22.6
2023-04-14T08:16:45.507Z,22.7
2023-04-14T08:22:06.729Z,22.6
2023-04-14T08:27:43.566Z,22.9
2023-04-14T08:33:36.167Z,25.3
2023-04-14T08:40:27.024Z,22.7
2023-04-14T08:46:19.779Z,22.7
2023-04-14T08:52:13.064Z,22.6
2023-04-14T08:57:49.515Z,22.6
2023-04-14T09:03:44.163Z,25.2
2023-04-14T09:09:37.313Z,22.8
2023-04-14T09:15:28.016Z,22.8
2023-04-14T09:23:15.738Z,22.7
2023-04-14T09:28:51.499Z,22.4
2023-04-14T09:34:42.841Z,22.1
2023-04-14T09:40:18.999Z,21.8
2023-04-14T09:45:55.132Z,21.5
2023-04-14T09:51:46.795Z,21.3
2023-04-14T09:57:40.289Z,21
2023-04-14T10:03:34.165Z,20.7
2023-04-14T10:09:11.040Z,20.4
2023-04-14T10:15:02.551Z,20.2
2023-04-14T10:20:54.895Z,20
2023-04-14T10:26:47.915Z,19.8
2023-04-14T10:32:41.949Z,19.6
2023-04-14T10:38:18.463Z,19.4
2023-04-14T10:44:09.493Z,19.2
2023-04-14T10:50:01.045Z,19
2023-04-14T10:55:46.604Z,18.8
2023-04-14T11:01:45.580Z,18.6
2023-04-14T11:07:39.453Z,18.5
2023-04-14T11:13:17.255Z,18.3
2023-04-14T11:19:20.177Z,18.2
2023-04-14T11:25:11.549Z,18.1
2023-04-14T11:31:02.955Z,17.9
2023-04-14T11:36:56.573Z,17.8
2023-04-14T11:42:32.866Z,17.7
2023-04-14T11:48:24.832Z,17.6
2023-04-14T11:54:00.938Z,17.4
2023-04-14T11:59:53.191Z,17.4
2023-04-14T12:05:31.493Z,17.3
2023-04-14T12:11:10.735Z,17.1
2023-04-14T12:16:47.185Z,17.1
2023-04-14T12:27:45.049Z,16.9
2023-04-14T12:33:36.804Z,16.9
2023-04-14T12:39:30.337Z,16.8
2023-04-14T12:45:06.168Z,16.7
2023-04-14T12:50:59.031Z,16.6
2023-04-14T12:56:51.124Z,16.6
2023-04-14T13:02:44.798Z,16.5
2023-04-14T13:08:39.174Z,16.4
2023-04-14T13:14:32.476Z,16.4
2023-04-14T13:21:20.476Z,16.4
2023-04-14T13:27:13.312Z,16.3
2023-04-14T13:32:50.367Z,16.3
2023-04-14T13:38:42.933Z,16.3
2023-04-14T13:44:37.324Z,16.2
2023-04-14T13:50:32.717Z,16.2
2023-04-14T13:56:24.572Z,16.1
2023-04-14T14:02:19.179Z,16.1
2023-04-14T14:08:14.507Z,16.1
2023-04-14T14:14:08.981Z,16.1
2023-04-14T14:19:55.547Z,16.1
2023-04-14T14:25:44.709Z,16
2023-04-14T14:31:39.604Z,16
2023-04-14T14:37:33.011Z,15.9
2023-04-14T14:43:24.961Z,15.9
2023-04-14T14:49:22.482Z,15.9
2023-04-14T14:55:33.417Z,15.9
2023-04-14T15:01:10.643Z,15.9
2023-04-14T15:07:04.208Z,15.9
2023-04-14T15:12:56.016Z,15.8
2023-04-14T15:18:48.332Z,15.8
2023-04-14T15:24:39.951Z,15.8
2023-04-14T15:30:31.176Z,15.8
2023-04-14T15:36:23.378Z,15.8
2023-04-14T15:42:15.733Z,15.8
2023-04-14T15:48:09.954Z,15.8
2023-04-14T15:54:20.832Z,15.8
2023-04-14T16:00:12.519Z,15.8
2023-04-14T16:06:06.173Z,15.8
2023-04-14T16:11:58.152Z,15.7
2023-04-14T16:17:51.818Z,15.7
2023-04-14T16:23:44.637Z,15.7
2023-04-14T16:29:36.802Z,15.7
2023-04-14T16:35:28.770Z,15.7
2023-04-14T16:41:20.582Z,15.7
2023-04-14T16:47:12.895Z,15.7
2023-04-14T16:53:04.905Z,15.7
2023-04-14T16:58:56.763Z,15.7
2023-04-14T17:04:54.106Z,15.7
2023-04-14T17:10:46.225Z,15.7
2023-04-14T17:16:45.719Z,15.7
2023-04-14T17:22:39.052Z,15.7
2023-04-14T17:28:30.624Z,15.7
2023-04-14T17:34:22.897Z,15.7
2023-04-14T17:40:14.720Z,15.7
2023-04-14T17:46:06.198Z,15.6
2023-04-14T17:51:44.117Z,15.6
2023-04-14T17:57:36.121Z,15.6
2023-04-14T18:03:29.295Z,15.6
2023-04-14T18:09:21.271Z,15.6
2023-04-14T18:15:12.564Z,15.6
2023-04-14T18:21:04.244Z,15.6
2023-04-14T18:33:13.629Z,15.6
2023-04-14T18:39:05.438Z,15.6
2023-04-14T18:44:57.089Z,15.6
2023-04-14T18:50:33.443Z,15.6
2023-04-14T18:56:35.799Z,15.6
2023-04-14T19:02:11.750Z,15.6
2023-04-14T19:08:04.710Z,15.6
2023-04-14T19:13:52.290Z,15.6
2023-04-14T19:19:28.821Z,15.6
2023-04-14T19:25:04.914Z,15.6
2023-04-14T19:30:42.454Z,15.6
2023-04-14T19:36:19.382Z,15.5
2023-04-14T19:42:11.182Z,15.5
2023-04-14T19:47:47.813Z,15.5
2023-04-14T19:53:51.302Z,15.5
2023-04-14T19:59:44.441Z,15.5
2023-04-14T20:06:08.179Z,15.5
2023-04-14T20:11:59.964Z,15.5
2023-04-14T20:17:51.611Z,15.5
2023-04-14T20:23:43.352Z,15.4
2023-04-14T20:29:35.165Z,15.4
2023-04-14T20:35:27.349Z,15.4
2023-04-14T20:41:18.456Z,19.1
2023-04-14T20:47:10.261Z,22.8
2023-04-14T20:52:46.388Z,24.9
2023-04-14T20:58:36.833Z,22.4
2023-04-14T21:04:30.484Z,23.6
2023-04-14T21:10:22.879Z,25.3
2023-04-14T21:20:18.600Z,26.3
2023-04-14T21:26:10.167Z,22.8
2023-04-14T21:32:01.237Z,24.3
2023-04-14T21:37:37.307Z,26.3
2023-04-14T21:43:13.740Z,23.3
2023-04-14T21:49:04.651Z,23.1
2023-04-14T21:54:58.187Z,23.1
2023-04-14T22:01:39.400Z,24.7
2023-04-14T22:07:42.777Z,26.7
2023-04-14T22:13:35.703Z,23.1
2023-04-14T22:19:12.050Z,23.3
2023-04-14T22:24:47.505Z,23.3
2023-04-14T22:30:24.695Z,24.6
2023-04-14T22:36:01.104Z,26.6
2023-04-14T22:41:52.886Z,23.4
2023-04-14T22:47:45.056Z,23.4
2023-04-14T22:53:43.269Z,23.4
2023-04-14T22:59:34.749Z,23.8
2023-04-14T23:05:38.723Z,25.9
2023-04-14T23:11:31.067Z,23.8
2023-04-14T23:17:21.492Z,23.4
2023-04-14T23:23:12.505Z,23.4
2023-04-14T23:28:49.515Z,23.3
2023-04-14T23:34:40.929Z,24.6
2023-04-14T23:40:32.618Z,26.8
2023-04-14T23:46:24.157Z,23.4
2023-04-14T23:53:14.299Z,23.5
2023-04-14T23:59:01.849Z,23.4
